JST816 YSSY-YBBN
Flight info
| Callsign | JST816 |
|---|---|
| Flight time | N/A |
| Altitude | 39000 |
| Route | OLSEM Y193 BANDA H252 GOMOL |
| Aircraft | A20N/M-SDE2E3FGHIRWXY/LB1 |
Departure
| Time | 2026-05-06 13:14 |
|---|---|
| Airport | Sydney Kingsford Smith International Airport (YSSY) |
Arrival
| Time | N/A |
|---|---|
| Airport | Brisbane International Airport (YBBN) |
| Time | Latitude | Longitude | Altitude | Speed | Heading |
|---|---|---|---|---|---|
| 2026-05-06 12:40 | -33.93563 | 151.17755 | 11 ft | 0 kts | 280° |
| 2026-05-06 12:55 | -33.93563 | 151.17757 | 11 ft | 1 kts | 280° |
| 2026-05-06 12:55 | -33.93566 | 151.17775 | 12 ft | 2 kts | 280° |
| 2026-05-06 12:56 | -33.93568 | 151.17793 | 12 ft | 1 kts | 280° |
| 2026-05-06 12:56 | -33.93570 | 151.17809 | 13 ft | 2 kts | 254° |
| 2026-05-06 12:56 | -33.93562 | 151.17825 | 14 ft | 2 kts | 221° |
| 2026-05-06 12:56 | -33.93550 | 151.17833 | 14 ft | 0 kts | 193° |
| 2026-05-06 12:57 | -33.93543 | 151.17835 | 14 ft | 0 kts | 189° |
| 2026-05-06 13:00 | -33.93554 | 151.17831 | 14 ft | 5 kts | 191° |
| 2026-05-06 13:01 | -33.93613 | 151.17818 | 12 ft | 10 kts | 190° |
| 2026-05-06 13:01 | -33.93698 | 151.17799 | 11 ft | 13 kts | 190° |
| 2026-05-06 13:01 | -33.93803 | 151.17778 | 9 ft | 15 kts | 189° |
| 2026-05-06 13:01 | -33.93912 | 151.17783 | 10 ft | 15 kts | 168° |
| 2026-05-06 13:02 | -33.94021 | 151.17810 | 12 ft | 14 kts | 168° |
| 2026-05-06 13:02 | -33.94123 | 151.17836 | 14 ft | 13 kts | 168° |
| 2026-05-06 13:02 | -33.94220 | 151.17862 | 17 ft | 13 kts | 167° |
| 2026-05-06 13:02 | -33.94312 | 151.17885 | 21 ft | 12 kts | 168° |
| 2026-05-06 13:03 | -33.94418 | 151.17912 | 24 ft | 15 kts | 173° |
| 2026-05-06 13:03 | -33.94529 | 151.17885 | 25 ft | 15 kts | 169° |
| 2026-05-06 13:03 | -33.94650 | 151.17915 | 26 ft | 18 kts | 168° |
| 2026-05-06 13:03 | -33.94781 | 151.17950 | 27 ft | 18 kts | 168° |
| 2026-05-06 13:04 | -33.94911 | 151.17984 | 26 ft | 15 kts | 168° |
| 2026-05-06 13:04 | -33.94976 | 151.18001 | 25 ft | 0 kts | 167° |
| 2026-05-06 13:06 | -33.94996 | 151.18007 | 25 ft | 6 kts | 168° |
| 2026-05-06 13:06 | -33.95071 | 151.18028 | 22 ft | 13 kts | 159° |
| 2026-05-06 13:06 | -33.95097 | 151.18137 | 21 ft | 15 kts | 78° |
| 2026-05-06 13:06 | -33.95074 | 151.18268 | 19 ft | 16 kts | 78° |
| 2026-05-06 13:07 | -33.95050 | 151.18398 | 18 ft | 6 kts | 78° |
| 2026-05-06 13:07 | -33.95050 | 151.18402 | 18 ft | 0 kts | 78° |
| 2026-05-06 13:07 | -33.95049 | 151.18408 | 18 ft | 2 kts | 78° |
| 2026-05-06 13:08 | -33.95043 | 151.18466 | 17 ft | 9 kts | 99° |
| 2026-05-06 13:08 | -33.95104 | 151.18532 | 15 ft | 13 kts | 143° |
| 2026-05-06 13:08 | -33.95182 | 151.18617 | 14 ft | 16 kts | 137° |
| 2026-05-06 13:08 | -33.95290 | 151.18709 | 12 ft | 18 kts | 157° |
| 2026-05-06 13:09 | -33.95422 | 151.18749 | 11 ft | 19 kts | 168° |
| 2026-05-06 13:09 | -33.95564 | 151.18785 | 10 ft | 20 kts | 168° |
| 2026-05-06 13:09 | -33.95712 | 151.18823 | 9 ft | 21 kts | 168° |
| 2026-05-06 13:09 | -33.95859 | 151.18861 | 9 ft | 21 kts | 168° |
| 2026-05-06 13:10 | -33.96009 | 151.18901 | 9 ft | 21 kts | 168° |
| 2026-05-06 13:10 | -33.96155 | 151.18938 | 9 ft | 20 kts | 168° |
| 2026-05-06 13:10 | -33.96299 | 151.18976 | 9 ft | 20 kts | 167° |
| 2026-05-06 13:10 | -33.96444 | 151.19014 | 10 ft | 20 kts | 168° |
| 2026-05-06 13:11 | -33.96587 | 151.19051 | 11 ft | 19 kts | 168° |
| 2026-05-06 13:11 | -33.96719 | 151.19078 | 12 ft | 16 kts | 181° |
| 2026-05-06 13:11 | -33.96843 | 151.19073 | 12 ft | 17 kts | 169° |
| 2026-05-06 13:11 | -33.96966 | 151.19104 | 12 ft | 17 kts | 168° |
| 2026-05-06 13:12 | -33.97090 | 151.19138 | 12 ft | 14 kts | 164° |
| 2026-05-06 13:12 | -33.97127 | 151.19237 | 12 ft | 11 kts | 78° |
| 2026-05-06 13:12 | -33.97123 | 151.19258 | 12 ft | 0 kts | 78° |
| 2026-05-06 13:12 | -33.97121 | 151.19272 | 12 ft | 5 kts | 78° |
| 2026-05-06 13:13 | -33.97107 | 151.19344 | 12 ft | 8 kts | 73° |
| 2026-05-06 13:13 | -33.97063 | 151.19376 | 12 ft | 5 kts | 348° |
| 2026-05-06 13:13 | -33.97032 | 151.19369 | 12 ft | 0 kts | 348° |
| 2026-05-06 13:14 | -33.96858 | 151.19324 | 12 ft | 67 kts | 348° |
| 2026-05-06 13:14 | -33.96126 | 151.19133 | 9 ft | 141 kts | 347° |
| 2026-05-06 13:14 | -33.95031 | 151.18852 | 467 ft | 162 kts | 346° |
| 2026-05-06 13:14 | -33.93838 | 151.18590 | 1390 ft | 163 kts | 356° |
| 2026-05-06 13:15 | -33.92732 | 151.18993 | 2244 ft | 167 kts | 29° |
| 2026-05-06 13:15 | -33.91700 | 151.19928 | 2848 ft | 185 kts | 36° |
| 2026-05-06 13:15 | -33.90630 | 151.20973 | 3381 ft | 206 kts | 35° |
| 2026-05-06 13:15 | -33.89361 | 151.22160 | 4014 ft | 227 kts | 34° |
| 2026-05-06 13:16 | -33.87989 | 151.23398 | 4634 ft | 249 kts | 33° |
| 2026-05-06 13:16 | -33.86537 | 151.24678 | 4939 ft | 263 kts | 33° |
| 2026-05-06 13:16 | -33.85046 | 151.25986 | 4961 ft | 265 kts | 33° |
| 2026-05-06 13:16 | -33.83646 | 151.27496 | 4963 ft | 272 kts | 49° |
| 2026-05-06 13:17 | -33.82742 | 151.29549 | 5117 ft | 287 kts | 69° |
| 2026-05-06 13:17 | -33.82150 | 151.31865 | 6015 ft | 293 kts | 71° |
| 2026-05-06 13:17 | -33.81585 | 151.34203 | 7180 ft | 291 kts | 71° |
| 2026-05-06 13:17 | -33.80976 | 151.36513 | 8138 ft | 294 kts | 64° |
| 2026-05-06 13:18 | -33.79897 | 151.38573 | 9028 ft | 295 kts | 48° |
| 2026-05-06 13:18 | -33.78578 | 151.40434 | 9938 ft | 299 kts | 45° |
| 2026-05-06 13:18 | -33.77184 | 151.42337 | 10827 ft | 304 kts | 46° |
| 2026-05-06 13:18 | -33.75823 | 151.44244 | 11694 ft | 308 kts | 46° |
| 2026-05-06 13:19 | -33.74437 | 151.46236 | 12596 ft | 312 kts | 47° |
| 2026-05-06 13:19 | -33.73056 | 151.48254 | 13408 ft | 316 kts | 47° |